sensor_id;sensor_type;location;lat;lon;timestamp;temperature;humidity
49218;DHT22;35045;51.194;7.268;2022-09-09T00:00:54;16.70;99.90
49218;DHT22;35045;51.194;7.268;2022-09-09T00:03:24;16.80;99.90
49218;DHT22;35045;51.194;7.268;2022-09-09T00:08:22;16.80;99.90
49218;DHT22;35045;51.194;7.268;2022-09-09T00:10:51;16.80;99.90
49218;DHT22;35045;51.194;7.268;2022-09-09T00:16:17;16.80;99.90
49218;DHT22;35045;51.194;7.268;2022-09-09T00:18:49;16.80;99.90
49218;DHT22;35045;51.194;7.268;2022-09-09T00:21:17;16.70;99.90
49218;DHT22;35045;51.194;7.268;2022-09-09T00:23:52;16.70;99.90
49218;DHT22;35045;51.194;7.268;2022-09-09T00:28:45;16.60;99.90
49218;DHT22;35045;51.194;7.268;2022-09-09T00:31:14;16.60;99.90
49218;DHT22;35045;51.194;7.268;2022-09-09T00:33:40;16.60;99.90
49218;DHT22;35045;51.194;7.268;2022-09-09T00:36:09;16.60;99.90
49218;DHT22;35045;51.194;7.268;2022-09-09T00:38:37;16.60;99.90
49218;DHT22;35045;51.194;7.268;2022-09-09T00:43:55;16.70;99.90
49218;DHT22;35045;51.194;7.268;2022-09-09T00:49:48;16.70;99.90
49218;DHT22;35045;51.194;7.268;2022-09-09T00:51:57;16.60;99.90
49218;DHT22;35045;51.194;7.268;2022-09-09T00:57:03;16.60;99.90
49218;DHT22;35045;51.194;7.268;2022-09-09T00:59:44;16.60;99.90
49218;DHT22;35045;51.194;7.268;2022-09-09T01:02:13;16.50;99.90
49218;DHT22;35045;51.194;7.268;2022-09-09T01:04:41;16.50;99.90
49218;DHT22;35045;51.194;7.268;2022-09-09T01:07:10;16.50;99.90
49218;DHT22;35045;51.194;7.268;2022-09-09T01:12:15;16.60;99.90
49218;DHT22;35045;51.194;7.268;2022-09-09T01:14:50;16.60;99.90
49218;DHT22;35045;51.194;7.268;2022-09-09T01:17:20;16.60;99.90
49218;DHT22;35045;51.194;7.268;2022-09-09T01:27:50;16.60;99.90
49218;DHT22;35045;51.194;7.268;2022-09-09T01:30:16;16.60;99.90
49218;DHT22;35045;51.194;7.268;2022-09-09T01:37:43;16.50;99.90
49218;DHT22;35045;51.194;7.268;2022-09-09T01:40:08;16.40;99.90
49218;DHT22;35045;51.194;7.268;2022-09-09T01:42:33;16.40;99.90
49218;DHT22;35045;51.194;7.268;2022-09-09T01:44:57;16.40;99.90
49218;DHT22;35045;51.194;7.268;2022-09-09T01:47:22;16.30;99.90
49218;DHT22;35045;51.194;7.268;2022-09-09T01:49:47;16.30;99.90
49218;DHT22;35045;51.194;7.268;2022-09-09T01:52:12;16.20;99.90
49218;DHT22;35045;51.194;7.268;2022-09-09T01:54:37;16.30;99.90
49218;DHT22;35045;51.194;7.268;2022-09-09T01:57:19;16.20;99.90
49218;DHT22;35045;51.194;7.268;2022-09-09T02:00:04;16.20;99.90
49218;DHT22;35045;51.194;7.268;2022-09-09T02:02:39;16.10;99.90
49218;DHT22;35045;51.194;7.268;2022-09-09T02:05:32;16.10;99.90
49218;DHT22;35045;51.194;7.268;2022-09-09T02:08:09;16.10;99.90
49218;DHT22;35045;51.194;7.268;2022-09-09T02:10:40;16.10;99.90
49218;DHT22;35045;51.194;7.268;2022-09-09T02:13:08;16.00;99.90
49218;DHT22;35045;51.194;7.268;2022-09-09T02:15:35;16.00;99.90
49218;DHT22;35045;51.194;7.268;2022-09-09T02:18:04;15.90;99.90
49218;DHT22;35045;51.194;7.268;2022-09-09T02:20:32;15.90;99.90
49218;DHT22;35045;51.194;7.268;2022-09-09T02:22:58;15.90;99.90
49218;DHT22;35045;51.194;7.268;2022-09-09T02:25:24;15.90;99.90
49218;DHT22;35045;51.194;7.268;2022-09-09T02:27:50;15.90;99.90
49218;DHT22;35045;51.194;7.268;2022-09-09T02:30:16;15.90;99.90
49218;DHT22;35045;51.194;7.268;2022-09-09T02:32:41;15.80;99.90
49218;DHT22;35045;51.194;7.268;2022-09-09T02:35:08;15.80;99.90
49218;DHT22;35045;51.194;7.268;2022-09-09T02:37:37;15.90;99.90
49218;DHT22;35045;51.194;7.268;2022-09-09T02:40:03;15.90;99.90
49218;DHT22;35045;51.194;7.268;2022-09-09T02:42:28;15.90;99.90
49218;DHT22;35045;51.194;7.268;2022-09-09T02:44:53;15.80;99.90
49218;DHT22;35045;51.194;7.268;2022-09-09T02:55:20;15.70;99.90
49218;DHT22;35045;51.194;7.268;2022-09-09T02:57:47;15.70;99.90
49218;DHT22;35045;51.194;7.268;2022-09-09T03:00:13;15.80;99.90
49218;DHT22;35045;51.194;7.268;2022-09-09T03:02:39;15.70;99.90
49218;DHT22;35045;51.194;7.268;2022-09-09T03:05:05;15.80;99.90
49218;DHT22;35045;51.194;7.268;2022-09-09T03:07:30;15.80;99.90
49218;DHT22;35045;51.194;7.268;2022-09-09T03:09:54;15.80;99.90
49218;DHT22;35045;51.194;7.268;2022-09-09T03:12:19;15.80;99.90
49218;DHT22;35045;51.194;7.268;2022-09-09T03:14:45;15.80;99.90
49218;DHT22;35045;51.194;7.268;2022-09-09T03:17:10;15.90;99.90
49218;DHT22;35045;51.194;7.268;2022-09-09T03:19:35;15.80;99.90
49218;DHT22;35045;51.194;7.268;2022-09-09T03:22:00;15.90;99.90
49218;DHT22;35045;51.194;7.268;2022-09-09T03:24:25;15.90;99.90
49218;DHT22;35045;51.194;7.268;2022-09-09T03:26:50;15.80;99.90
49218;DHT22;35045;51.194;7.268;2022-09-09T03:29:15;15.90;99.90
49218;DHT22;35045;51.194;7.268;2022-09-09T03:31:41;15.80;99.90
49218;DHT22;35045;51.194;7.268;2022-09-09T03:34:07;15.90;99.90
49218;DHT22;35045;51.194;7.268;2022-09-09T03:36:32;15.90;99.90
49218;DHT22;35045;51.194;7.268;2022-09-09T03:38:57;15.90;99.90
49218;DHT22;35045;51.194;7.268;2022-09-09T03:41:22;15.80;99.90
49218;DHT22;35045;51.194;7.268;2022-09-09T03:43:48;15.90;99.90
49218;DHT22;35045;51.194;7.268;2022-09-09T03:46:13;15.80;99.90
49218;DHT22;35045;51.194;7.268;2022-09-09T03:48:38;15.80;99.90
49218;DHT22;35045;51.194;7.268;2022-09-09T03:51:02;15.80;99.90
49218;DHT22;35045;51.194;7.268;2022-09-09T03:53:27;15.80;99.90
49218;DHT22;35045;51.194;7.268;2022-09-09T03:55:53;15.80;99.90
49218;DHT22;35045;51.194;7.268;2022-09-09T03:58:24;15.80;99.90
49218;DHT22;35045;51.194;7.268;2022-09-09T04:00:55;15.80;99.90
49218;DHT22;35045;51.194;7.268;2022-09-09T04:03:20;15.80;99.90
49218;DHT22;35045;51.194;7.268;2022-09-09T04:05:45;15.70;99.90
49218;DHT22;35045;51.194;7.268;2022-09-09T04:08:12;15.70;99.90
49218;DHT22;35045;51.194;7.268;2022-09-09T04:10:37;15.70;99.90
49218;DHT22;35045;51.194;7.268;2022-09-09T04:13:03;15.70;99.90
49218;DHT22;35045;51.194;7.268;2022-09-09T04:15:28;15.70;99.90
49218;DHT22;35045;51.194;7.268;2022-09-09T04:17:53;15.70;99.90
49218;DHT22;35045;51.194;7.268;2022-09-09T04:20:18;15.70;99.90
49218;DHT22;35045;51.194;7.268;2022-09-09T04:22:43;15.70;99.90
49218;DHT22;35045;51.194;7.268;2022-09-09T04:25:08;15.80;99.90
49218;DHT22;35045;51.194;7.268;2022-09-09T04:27:33;15.80;99.90
49218;DHT22;35045;51.194;7.268;2022-09-09T04:29:58;15.70;99.90
49218;DHT22;35045;51.194;7.268;2022-09-09T04:32:23;15.80;99.90
49218;DHT22;35045;51.194;7.268;2022-09-09T04:34:51;15.80;99.90
49218;DHT22;35045;51.194;7.268;2022-09-09T04:37:16;15.80;99.90
49218;DHT22;35045;51.194;7.268;2022-09-09T04:39:41;15.80;99.90
49218;DHT22;35045;51.194;7.268;2022-09-09T04:42:06;15.80;99.90
49218;DHT22;35045;51.194;7.268;2022-09-09T04:44:31;15.80;99.90
49218;DHT22;35045;51.194;7.268;2022-09-09T04:46:56;15.70;99.90
49218;DHT22;35045;51.194;7.268;2022-09-09T04:49:21;15.70;99.90
49218;DHT22;35045;51.194;7.268;2022-09-09T04:51:46;15.70;99.90
49218;DHT22;35045;51.194;7.268;2022-09-09T04:54:13;15.80;99.90
49218;DHT22;35045;51.194;7.268;2022-09-09T04:56:38;15.80;99.90
49218;DHT22;35045;51.194;7.268;2022-09-09T04:59:03;15.80;99.90
49218;DHT22;35045;51.194;7.268;2022-09-09T05:01:28;15.80;99.90
49218;DHT22;35045;51.194;7.268;2022-09-09T05:03:53;15.80;99.90
49218;DHT22;35045;51.194;7.268;2022-09-09T05:06:19;15.80;99.90
49218;DHT22;35045;51.194;7.268;2022-09-09T05:08:44;15.80;99.90
49218;DHT22;35045;51.194;7.268;2022-09-09T05:11:13;15.80;99.90
49218;DHT22;35045;51.194;7.268;2022-09-09T05:13:38;15.80;99.90
49218;DHT22;35045;51.194;7.268;2022-09-09T05:16:03;15.80;99.90
49218;DHT22;35045;51.194;7.268;2022-09-09T05:18:28;15.80;99.90
49218;DHT22;35045;51.194;7.268;2022-09-09T05:20:58;15.70;99.90
49218;DHT22;35045;51.194;7.268;2022-09-09T05:23:22;15.70;99.90
49218;DHT22;35045;51.194;7.268;2022-09-09T05:25:54;15.60;99.90
49218;DHT22;35045;51.194;7.268;2022-09-09T05:28:19;15.60;99.90
49218;DHT22;35045;51.194;7.268;2022-09-09T05:30:44;15.60;99.90
49218;DHT22;35045;51.194;7.268;2022-09-09T05:33:09;15.50;99.90
49218;DHT22;35045;51.194;7.268;2022-09-09T05:35:34;15.60;99.90
49218;DHT22;35045;51.194;7.268;2022-09-09T05:37:59;15.60;99.90
49218;DHT22;35045;51.194;7.268;2022-09-09T05:40:24;15.60;99.90
49218;DHT22;35045;51.194;7.268;2022-09-09T05:42:49;15.60;99.90
49218;DHT22;35045;51.194;7.268;2022-09-09T05:45:14;15.60;99.90
49218;DHT22;35045;51.194;7.268;2022-09-09T05:47:38;15.60;99.90
49218;DHT22;35045;51.194;7.268;2022-09-09T05:50:03;15.70;99.90
49218;DHT22;35045;51.194;7.268;2022-09-09T05:52:28;15.70;99.90
49218;DHT22;35045;51.194;7.268;2022-09-09T05:54:53;15.70;99.90
49218;DHT22;35045;51.194;7.268;2022-09-09T05:57:19;15.70;99.90
49218;DHT22;35045;51.194;7.268;2022-09-09T05:59:44;15.70;99.90
49218;DHT22;35045;51.194;7.268;2022-09-09T06:02:09;15.60;99.90
49218;DHT22;35045;51.194;7.268;2022-09-09T06:04:34;15.50;99.90
49218;DHT22;35045;51.194;7.268;2022-09-09T06:06:59;15.50;99.90
49218;DHT22;35045;51.194;7.268;2022-09-09T06:09:24;15.50;99.90
49218;DHT22;35045;51.194;7.268;2022-09-09T06:11:49;15.50;99.90
49218;DHT22;35045;51.194;7.268;2022-09-09T06:14:14;15.50;99.90
49218;DHT22;35045;51.194;7.268;2022-09-09T06:16:39;15.50;99.90
49218;DHT22;35045;51.194;7.268;2022-09-09T06:19:04;15.40;99.90
49218;DHT22;35045;51.194;7.268;2022-09-09T06:21:30;15.40;99.90
49218;DHT22;35045;51.194;7.268;2022-09-09T06:23:55;15.40;99.90
49218;DHT22;35045;51.194;7.268;2022-09-09T06:26:21;15.50;99.90
49218;DHT22;35045;51.194;7.268;2022-09-09T06:28:47;15.40;99.90
49218;DHT22;35045;51.194;7.268;2022-09-09T06:31:13;15.40;99.90
49218;DHT22;35045;51.194;7.268;2022-09-09T06:33:39;15.40;99.90
49218;DHT22;35045;51.194;7.268;2022-09-09T06:36:05;15.40;99.90
49218;DHT22;35045;51.194;7.268;2022-09-09T06:38:30;15.40;99.90
49218;DHT22;35045;51.194;7.268;2022-09-09T06:40:56;15.40;99.90
49218;DHT22;35045;51.194;7.268;2022-09-09T06:43:22;15.40;99.90
49218;DHT22;35045;51.194;7.268;2022-09-09T06:45:54;15.40;99.90
49218;DHT22;35045;51.194;7.268;2022-09-09T06:48:19;15.50;99.90
49218;DHT22;35045;51.194;7.268;2022-09-09T06:50:44;15.50;99.90
49218;DHT22;35045;51.194;7.268;2022-09-09T06:53:09;15.50;99.90
49218;DHT22;35045;51.194;7.268;2022-09-09T06:55:34;15.60;99.90
49218;DHT22;35045;51.194;7.268;2022-09-09T06:57:59;15.60;99.90
49218;DHT22;35045;51.194;7.268;2022-09-09T07:00:24;15.60;99.90
49218;DHT22;35045;51.194;7.268;2022-09-09T07:02:50;15.60;99.90
49218;DHT22;35045;51.194;7.268;2022-09-09T07:05:15;15.70;99.90
49218;DHT22;35045;51.194;7.268;2022-09-09T07:07:40;15.70;99.90
49218;DHT22;35045;51.194;7.268;2022-09-09T07:10:05;15.70;99.90
49218;DHT22;35045;51.194;7.268;2022-09-09T07:12:30;15.70;99.90
49218;DHT22;35045;51.194;7.268;2022-09-09T07:14:55;15.70;99.90
49218;DHT22;35045;51.194;7.268;2022-09-09T07:17:20;15.60;99.90
49218;DHT22;35045;51.194;7.268;2022-09-09T07:19:44;15.70;99.90
49218;DHT22;35045;51.194;7.268;2022-09-09T07:22:09;15.80;99.90
49218;DHT22;35045;51.194;7.268;2022-09-09T07:24:35;15.90;99.90
49218;DHT22;35045;51.194;7.268;2022-09-09T07:27:00;16.00;99.90
49218;DHT22;35045;51.194;7.268;2022-09-09T07:29:24;16.00;99.90
49218;DHT22;35045;51.194;7.268;2022-09-09T07:31:49;16.10;99.90
49218;DHT22;35045;51.194;7.268;2022-09-09T07:34:14;16.10;99.90
49218;DHT22;35045;51.194;7.268;2022-09-09T07:36:39;16.10;99.90
49218;DHT22;35045;51.194;7.268;2022-09-09T07:39:06;16.20;99.90
49218;DHT22;35045;51.194;7.268;2022-09-09T07:41:38;16.20;99.90
49218;DHT22;35045;51.194;7.268;2022-09-09T07:44:04;16.20;99.90
49218;DHT22;35045;51.194;7.268;2022-09-09T07:46:29;16.30;99.90
49218;DHT22;35045;51.194;7.268;2022-09-09T07:48:54;16.20;99.90
49218;DHT22;35045;51.194;7.268;2022-09-09T07:51:21;16.20;99.90
49218;DHT22;35045;51.194;7.268;2022-09-09T07:53:46;16.30;99.90
49218;DHT22;35045;51.194;7.268;2022-09-09T07:56:13;16.30;99.90
49218;DHT22;35045;51.194;7.268;2022-09-09T07:58:38;16.40;99.90
49218;DHT22;35045;51.194;7.268;2022-09-09T08:01:07;16.40;99.90
49218;DHT22;35045;51.194;7.268;2022-09-09T08:03:32;16.50;99.90
49218;DHT22;35045;51.194;7.268;2022-09-09T08:06:00;16.70;99.90
49218;DHT22;35045;51.194;7.268;2022-09-09T08:08:26;16.70;99.90
49218;DHT22;35045;51.194;7.268;2022-09-09T08:10:51;16.80;99.90
49218;DHT22;35045;51.194;7.268;2022-09-09T08:13:16;16.80;99.90
49218;DHT22;35045;51.194;7.268;2022-09-09T08:15:42;16.90;99.90
49218;DHT22;35045;51.194;7.268;2022-09-09T08:18:08;17.10;99.90
49218;DHT22;35045;51.194;7.268;2022-09-09T08:20:35;17.20;99.90
49218;DHT22;35045;51.194;7.268;2022-09-09T08:22:59;17.30;99.90
49218;DHT22;35045;51.194;7.268;2022-09-09T08:25:24;17.40;99.90
49218;DHT22;35045;51.194;7.268;2022-09-09T08:27:49;17.40;99.90
49218;DHT22;35045;51.194;7.268;2022-09-09T08:30:14;17.40;99.90
49218;DHT22;35045;51.194;7.268;2022-09-09T08:32:39;17.50;99.90
49218;DHT22;35045;51.194;7.268;2022-09-09T08:35:04;17.50;99.90
49218;DHT22;35045;51.194;7.268;2022-09-09T08:37:29;17.60;99.90
49218;DHT22;35045;51.194;7.268;2022-09-09T08:39:54;17.70;99.90
49218;DHT22;35045;51.194;7.268;2022-09-09T08:44:53;17.70;99.90
49218;DHT22;35045;51.194;7.268;2022-09-09T08:52:19;17.90;99.90
49218;DHT22;35045;51.194;7.268;2022-09-09T08:54:45;17.90;99.90
49218;DHT22;35045;51.194;7.268;2022-09-09T08:57:11;18.10;99.90
49218;DHT22;35045;51.194;7.268;2022-09-09T08:59:38;18.10;99.90
49218;DHT22;35045;51.194;7.268;2022-09-09T09:04:42;18.00;99.90
49218;DHT22;35045;51.194;7.268;2022-09-09T09:09:51;17.80;99.90
49218;DHT22;35045;51.194;7.268;2022-09-09T09:12:18;17.80;99.90
49218;DHT22;35045;51.194;7.268;2022-09-09T09:14:43;17.70;99.90
49218;DHT22;35045;51.194;7.268;2022-09-09T09:17:11;17.70;99.90
49218;DHT22;35045;51.194;7.268;2022-09-09T09:19:38;17.70;99.90
49218;DHT22;35045;51.194;7.268;2022-09-09T09:25:08;17.90;99.90
49218;DHT22;35045;51.194;7.268;2022-09-09T09:27:39;18.00;99.90
49218;DHT22;35045;51.194;7.268;2022-09-09T09:30:15;18.00;99.90
49218;DHT22;35045;51.194;7.268;2022-09-09T09:32:43;18.00;99.90
49218;DHT22;35045;51.194;7.268;2022-09-09T09:35:10;18.00;99.90
49218;DHT22;35045;51.194;7.268;2022-09-09T09:37:36;18.20;99.90
49218;DHT22;35045;51.194;7.268;2022-09-09T09:40:14;18.20;99.90
49218;DHT22;35045;51.194;7.268;2022-09-09T09:42:53;18.20;99.90
49218;DHT22;35045;51.194;7.268;2022-09-09T09:47:46;18.40;99.90
49218;DHT22;35045;51.194;7.268;2022-09-09T09:50:18;18.40;99.90
49218;DHT22;35045;51.194;7.268;2022-09-09T09:52:51;18.70;99.90
49218;DHT22;35045;51.194;7.268;2022-09-09T09:55:18;19.00;99.90
49218;DHT22;35045;51.194;7.268;2022-09-09T09:57:42;19.00;99.90
49218;DHT22;35045;51.194;7.268;2022-09-09T10:00:13;19.20;99.90
49218;DHT22;35045;51.194;7.268;2022-09-09T10:02:39;19.40;99.90
49218;DHT22;35045;51.194;7.268;2022-09-09T10:07:39;19.60;99.90
49218;DHT22;35045;51.194;7.268;2022-09-09T10:10:04;19.60;99.90
49218;DHT22;35045;51.194;7.268;2022-09-09T10:12:51;19.50;99.90
49218;DHT22;35045;51.194;7.268;2022-09-09T10:18:18;19.20;99.90
49218;DHT22;35045;51.194;7.268;2022-09-09T10:28:43;19.00;99.90
49218;DHT22;35045;51.194;7.268;2022-09-09T10:34:06;19.30;99.90
49218;DHT22;35045;51.194;7.268;2022-09-09T10:36:34;19.40;99.90
49218;DHT22;35045;51.194;7.268;2022-09-09T10:39:06;19.50;99.90
49218;DHT22;35045;51.194;7.268;2022-09-09T10:41:40;19.60;99.90
49218;DHT22;35045;51.194;7.268;2022-09-09T10:46:58;19.70;99.90
49218;DHT22;35045;51.194;7.268;2022-09-09T10:56:49;20.00;99.80
49218;DHT22;35045;51.194;7.268;2022-09-09T10:59:19;19.90;99.20
49218;DHT22;35045;51.194;7.268;2022-09-09T11:01:48;19.60;98.90
49218;DHT22;35045;51.194;7.268;2022-09-09T11:04:21;19.40;99.30
49218;DHT22;35045;51.194;7.268;2022-09-09T11:06:48;19.40;99.60
49218;DHT22;35045;51.194;7.268;2022-09-09T11:09:17;19.50;99.80
49218;DHT22;35045;51.194;7.268;2022-09-09T11:11:48;19.60;99.40
49218;DHT22;35045;51.194;7.268;2022-09-09T11:16:46;19.80;98.90
49218;DHT22;35045;51.194;7.268;2022-09-09T11:21:50;19.80;99.30
49218;DHT22;35045;51.194;7.268;2022-09-09T11:24:19;19.70;99.30
49218;DHT22;35045;51.194;7.268;2022-09-09T11:26:51;19.70;99.50
49218;DHT22;35045;51.194;7.268;2022-09-09T11:31:53;19.70;99.30
49218;DHT22;35045;51.194;7.268;2022-09-09T11:34:30;19.80;99.20
49218;DHT22;35045;51.194;7.268;2022-09-09T11:37:05;20.00;98.80
49218;DHT22;35045;51.194;7.268;2022-09-09T11:39:41;20.20;99.60
49218;DHT22;35045;51.194;7.268;2022-09-09T11:44:37;20.40;98.60
49218;DHT22;35045;51.194;7.268;2022-09-09T11:47:02;20.50;98.50
49218;DHT22;35045;51.194;7.268;2022-09-09T11:49:42;20.50;97.70
49218;DHT22;35045;51.194;7.268;2022-09-09T11:52:11;20.70;98.30
49218;DHT22;35045;51.194;7.268;2022-09-09T11:54:44;20.80;97.90
49218;DHT22;35045;51.194;7.268;2022-09-09T11:57:24;20.90;97.30
49218;DHT22;35045;51.194;7.268;2022-09-09T11:59:50;20.60;97.10
49218;DHT22;35045;51.194;7.268;2022-09-09T12:02:22;20.60;97.40
49218;DHT22;35045;51.194;7.268;2022-09-09T12:04:49;20.40;97.50
49218;DHT22;35045;51.194;7.268;2022-09-09T12:07:30;20.30;98.10
49218;DHT22;35045;51.194;7.268;2022-09-09T12:09:57;20.10;97.80
49218;DHT22;35045;51.194;7.268;2022-09-09T12:12:30;19.90;97.60
49218;DHT22;35045;51.194;7.268;2022-09-09T12:17:36;19.80;97.80
49218;DHT22;35045;51.194;7.268;2022-09-09T12:28:27;20.10;97.50
49218;DHT22;35045;51.194;7.268;2022-09-09T12:31:08;20.10;97.20
49218;DHT22;35045;51.194;7.268;2022-09-09T12:33:35;20.00;97.10
49218;DHT22;35045;51.194;7.268;2022-09-09T12:36:00;19.90;97.30
49218;DHT22;35045;51.194;7.268;2022-09-09T12:38:39;20.00;97.50
49218;DHT22;35045;51.194;7.268;2022-09-09T12:41:04;20.10;97.70
49218;DHT22;35045;51.194;7.268;2022-09-09T12:43:29;20.00;97.10
49218;DHT22;35045;51.194;7.268;2022-09-09T12:46:01;19.90;97.10
49218;DHT22;35045;51.194;7.268;2022-09-09T12:48:36;19.80;97.50
49218;DHT22;35045;51.194;7.268;2022-09-09T12:51:01;19.70;97.90
49218;DHT22;35045;51.194;7.268;2022-09-09T12:53:31;19.60;98.50
49218;DHT22;35045;51.194;7.268;2022-09-09T12:55:59;19.50;98.80
49218;DHT22;35045;51.194;7.268;2022-09-09T12:58:25;19.50;97.90
49218;DHT22;35045;51.194;7.268;2022-09-09T13:00:53;19.40;98.60
49218;DHT22;35045;51.194;7.268;2022-09-09T13:03:22;19.50;98.50
49218;DHT22;35045;51.194;7.268;2022-09-09T13:05:47;19.40;98.20
49218;DHT22;35045;51.194;7.268;2022-09-09T13:08:12;19.40;98.80
49218;DHT22;35045;51.194;7.268;2022-09-09T13:10:48;19.40;99.00
49218;DHT22;35045;51.194;7.268;2022-09-09T13:13:17;19.50;98.50
49218;DHT22;35045;51.194;7.268;2022-09-09T13:15:51;19.50;98.90
49218;DHT22;35045;51.194;7.268;2022-09-09T13:18:17;19.60;98.40
49218;DHT22;35045;51.194;7.268;2022-09-09T13:20:49;19.60;98.70
49218;DHT22;35045;51.194;7.268;2022-09-09T13:23:15;19.60;98.50
49218;DHT22;35045;51.194;7.268;2022-09-09T13:25:40;19.60;98.60
49218;DHT22;35045;51.194;7.268;2022-09-09T13:28:18;19.50;98.80
49218;DHT22;35045;51.194;7.268;2022-09-09T13:30:44;19.30;98.80
49218;DHT22;35045;51.194;7.268;2022-09-09T13:33:20;19.20;99.30
49218;DHT22;35045;51.194;7.268;2022-09-09T13:35:50;19.00;99.90
49218;DHT22;35045;51.194;7.268;2022-09-09T13:38:16;18.50;99.90
49218;DHT22;35045;51.194;7.268;2022-09-09T13:40:57;18.30;99.90
49218;DHT22;35045;51.194;7.268;2022-09-09T13:43:26;18.40;99.90
49218;DHT22;35045;51.194;7.268;2022-09-09T13:46:02;18.60;99.90
49218;DHT22;35045;51.194;7.268;2022-09-09T13:48:27;18.90;99.90
49218;DHT22;35045;51.194;7.268;2022-09-09T13:50:59;19.10;99.90
49218;DHT22;35045;51.194;7.268;2022-09-09T13:53:24;19.30;99.90
49218;DHT22;35045;51.194;7.268;2022-09-09T13:55:49;19.30;99.90
49218;DHT22;35045;51.194;7.268;2022-09-09T13:58:15;19.40;99.90
49218;DHT22;35045;51.194;7.268;2022-09-09T14:00:41;19.40;99.90
49218;DHT22;35045;51.194;7.268;2022-09-09T14:03:06;19.20;99.90
49218;DHT22;35045;51.194;7.268;2022-09-09T14:05:32;19.20;99.90
49218;DHT22;35045;51.194;7.268;2022-09-09T14:07:57;19.00;99.90
49218;DHT22;35045;51.194;7.268;2022-09-09T14:10:22;18.90;99.90
49218;DHT22;35045;51.194;7.268;2022-09-09T14:12:47;18.90;99.90
49218;DHT22;35045;51.194;7.268;2022-09-09T14:15:12;18.70;99.90
49218;DHT22;35045;51.194;7.268;2022-09-09T14:17:37;18.60;99.90
49218;DHT22;35045;51.194;7.268;2022-09-09T14:20:03;18.40;99.90
49218;DHT22;35045;51.194;7.268;2022-09-09T14:22:31;18.30;99.90
49218;DHT22;35045;51.194;7.268;2022-09-09T14:24:55;18.10;99.90
49218;DHT22;35045;51.194;7.268;2022-09-09T14:27:22;18.00;99.90
49218;DHT22;35045;51.194;7.268;2022-09-09T14:29:46;18.00;99.90
49218;DHT22;35045;51.194;7.268;2022-09-09T14:32:12;18.00;99.90
49218;DHT22;35045;51.194;7.268;2022-09-09T14:34:36;18.10;99.90
49218;DHT22;35045;51.194;7.268;2022-09-09T14:37:02;18.00;99.90
49218;DHT22;35045;51.194;7.268;2022-09-09T14:39:27;18.00;99.90
49218;DHT22;35045;51.194;7.268;2022-09-09T14:41:52;18.00;99.90
49218;DHT22;35045;51.194;7.268;2022-09-09T14:44:16;18.00;99.90
49218;DHT22;35045;51.194;7.268;2022-09-09T14:46:41;17.90;99.90
49218;DHT22;35045;51.194;7.268;2022-09-09T14:49:09;17.80;99.90
49218;DHT22;35045;51.194;7.268;2022-09-09T14:51:37;17.70;99.90
49218;DHT22;35045;51.194;7.268;2022-09-09T14:54:02;17.60;99.90
49218;DHT22;35045;51.194;7.268;2022-09-09T14:56:28;17.50;99.90
49218;DHT22;35045;51.194;7.268;2022-09-09T14:58:54;17.30;99.90
49218;DHT22;35045;51.194;7.268;2022-09-09T15:01:19;17.20;99.90
49218;DHT22;35045;51.194;7.268;2022-09-09T15:03:49;17.00;99.90
49218;DHT22;35045;51.194;7.268;2022-09-09T15:06:14;16.90;99.90
49218;DHT22;35045;51.194;7.268;2022-09-09T15:08:43;16.90;99.90
49218;DHT22;35045;51.194;7.268;2022-09-09T15:11:08;16.90;99.90
49218;DHT22;35045;51.194;7.268;2022-09-09T15:13:34;16.90;99.90
49218;DHT22;35045;51.194;7.268;2022-09-09T15:16:05;16.80;99.90
49218;DHT22;35045;51.194;7.268;2022-09-09T15:18:30;16.80;99.90
49218;DHT22;35045;51.194;7.268;2022-09-09T15:20:55;16.90;99.90
49218;DHT22;35045;51.194;7.268;2022-09-09T15:23:20;16.80;99.90
49218;DHT22;35045;51.194;7.268;2022-09-09T15:25:55;16.80;99.90
49218;DHT22;35045;51.194;7.268;2022-09-09T15:28:21;16.80;99.90
49218;DHT22;35045;51.194;7.268;2022-09-09T15:30:49;16.80;99.90
49218;DHT22;35045;51.194;7.268;2022-09-09T15:33:14;16.90;99.90
49218;DHT22;35045;51.194;7.268;2022-09-09T15:35:39;16.90;99.90
49218;DHT22;35045;51.194;7.268;2022-09-09T15:38:04;17.00;99.90
49218;DHT22;35045;51.194;7.268;2022-09-09T15:40:31;17.20;99.90
49218;DHT22;35045;51.194;7.268;2022-09-09T15:42:59;17.20;99.90
49218;DHT22;35045;51.194;7.268;2022-09-09T15:45:24;17.20;99.90
49218;DHT22;35045;51.194;7.268;2022-09-09T15:47:49;17.40;99.90
49218;DHT22;35045;51.194;7.268;2022-09-09T15:50:14;17.60;99.90
49218;DHT22;35045;51.194;7.268;2022-09-09T15:52:39;17.90;99.90
49218;DHT22;35045;51.194;7.268;2022-09-09T15:55:04;18.10;99.90
49218;DHT22;35045;51.194;7.268;2022-09-09T15:57:28;18.30;99.90
49218;DHT22;35045;51.194;7.268;2022-09-09T15:59:53;18.40;99.90
49218;DHT22;35045;51.194;7.268;2022-09-09T16:02:18;18.40;99.90
49218;DHT22;35045;51.194;7.268;2022-09-09T16:04:43;18.40;99.90
49218;DHT22;35045;51.194;7.268;2022-09-09T16:07:08;18.30;99.90
49218;DHT22;35045;51.194;7.268;2022-09-09T16:09:33;18.30;99.90
49218;DHT22;35045;51.194;7.268;2022-09-09T16:11:59;18.20;99.90
49218;DHT22;35045;51.194;7.268;2022-09-09T16:14:27;18.10;99.90
49218;DHT22;35045;51.194;7.268;2022-09-09T16:16:52;18.10;99.90
49218;DHT22;35045;51.194;7.268;2022-09-09T16:19:17;17.90;99.90
49218;DHT22;35045;51.194;7.268;2022-09-09T16:21:44;17.80;99.90
49218;DHT22;35045;51.194;7.268;2022-09-09T16:24:10;17.80;99.90
49218;DHT22;35045;51.194;7.268;2022-09-09T16:26:35;17.70;99.90
49218;DHT22;35045;51.194;7.268;2022-09-09T16:29:01;17.60;99.90
49218;DHT22;35045;51.194;7.268;2022-09-09T16:31:27;17.60;99.90
49218;DHT22;35045;51.194;7.268;2022-09-09T16:33:53;17.50;99.90
49218;DHT22;35045;51.194;7.268;2022-09-09T16:36:19;17.50;99.90
49218;DHT22;35045;51.194;7.268;2022-09-09T16:38:44;17.50;99.90
49218;DHT22;35045;51.194;7.268;2022-09-09T16:41:09;17.50;99.90
49218;DHT22;35045;51.194;7.268;2022-09-09T16:43:35;17.60;99.90
49218;DHT22;35045;51.194;7.268;2022-09-09T16:46:00;17.70;99.90
49218;DHT22;35045;51.194;7.268;2022-09-09T16:48:26;17.70;99.90
49218;DHT22;35045;51.194;7.268;2022-09-09T16:50:51;17.60;99.90
49218;DHT22;35045;51.194;7.268;2022-09-09T16:53:16;17.50;99.90
49218;DHT22;35045;51.194;7.268;2022-09-09T16:55:41;17.40;99.90
49218;DHT22;35045;51.194;7.268;2022-09-09T16:58:07;17.30;99.90
49218;DHT22;35045;51.194;7.268;2022-09-09T17:00:33;17.00;99.90
49218;DHT22;35045;51.194;7.268;2022-09-09T17:02:58;17.00;99.90
49218;DHT22;35045;51.194;7.268;2022-09-09T17:05:23;16.90;99.90
49218;DHT22;35045;51.194;7.268;2022-09-09T17:07:49;16.90;99.90
49218;DHT22;35045;51.194;7.268;2022-09-09T17:10:14;16.80;99.90
49218;DHT22;35045;51.194;7.268;2022-09-09T17:12:39;16.80;99.90
49218;DHT22;35045;51.194;7.268;2022-09-09T17:15:06;16.80;99.90